createdAt,value
2018-11-25T00:02:08.366Z,6.40
2018-11-25T00:04:51.872Z,5.93
2018-11-25T00:07:25.526Z,6.00
2018-11-25T00:09:54.919Z,6.43
2018-11-25T00:12:33.936Z,6.97
2018-11-25T00:15:03.845Z,6.83
2018-11-25T00:17:33.799Z,6.90
2018-11-25T00:20:16.577Z,7.83
2018-11-25T00:22:45.939Z,7.30
2018-11-25T00:25:15.700Z,7.93
2018-11-25T00:27:57.493Z,7.20
2018-11-25T00:30:26.888Z,7.42
2018-11-25T00:32:56.232Z,7.77
2018-11-25T00:35:39.483Z,7.57
2018-11-25T00:38:09.556Z,6.62
2018-11-25T00:40:38.885Z,7.65
2018-11-25T00:43:21.340Z,6.08
2018-11-25T00:45:50.662Z,5.63
2018-11-25T00:48:20.070Z,6.90
2018-11-25T00:51:05.699Z,6.83
2018-11-25T00:53:35.031Z,5.00
2018-11-25T00:56:04.451Z,6.03
2018-11-25T00:58:45.624Z,6.00
2018-11-25T01:01:15.142Z,5.53
2018-11-25T01:03:44.575Z,5.10
2018-11-25T01:06:27.246Z,5.90
2018-11-25T01:08:57.235Z,4.97
2018-11-25T01:11:26.550Z,5.50
2018-11-25T01:14:09.377Z,4.97
2018-11-25T01:16:39.313Z,5.22
2018-11-25T01:19:08.752Z,5.28
2018-11-25T01:21:53.198Z,6.08
2018-11-25T01:24:23.105Z,5.60
2018-11-25T01:26:52.527Z,5.83
2018-11-25T01:29:35.411Z,4.85
2018-11-25T01:32:04.825Z,6.55
2018-11-25T01:34:34.321Z,6.75
2018-11-25T01:37:16.649Z,6.50
2018-11-25T01:39:46.047Z,5.83
2018-11-25T01:42:15.408Z,5.72
2018-11-25T01:44:57.579Z,6.42
2018-11-25T01:47:27.007Z,5.63
2018-11-25T01:49:56.414Z,5.20
2018-11-25T01:52:39.338Z,4.63
2018-11-25T01:55:10.501Z,5.53
2018-11-25T01:57:39.899Z,5.10
2018-11-25T02:00:22.049Z,4.40
2018-11-25T02:02:51.751Z,4.90
2018-11-25T02:05:21.130Z,4.60
2018-11-25T02:08:03.371Z,5.55
2018-11-25T02:10:32.814Z,4.67
2018-11-25T02:13:02.185Z,4.30
2018-11-25T02:15:47.559Z,5.13
2018-11-25T02:18:16.923Z,4.50
2018-11-25T02:20:52.418Z,5.28
2018-11-25T02:23:28.680Z,5.00
2018-11-25T02:25:58.123Z,4.97
2018-11-25T02:28:27.834Z,4.55
2018-11-25T02:31:10.122Z,5.15
2018-11-25T02:33:39.452Z,4.60
2018-11-25T02:36:08.837Z,5.05
2018-11-25T02:38:52.260Z,5.33
2018-11-25T02:41:22.119Z,5.37
2018-11-25T02:43:51.530Z,5.50
2018-11-25T02:46:33.354Z,4.50
2018-11-25T02:49:02.783Z,4.45
2018-11-25T02:51:32.127Z,4.60
2018-11-25T02:54:16.647Z,4.58
2018-11-25T02:56:46.567Z,4.22
2018-11-25T02:59:16.018Z,4.97
2018-11-25T03:01:57.312Z,4.70
2018-11-25T03:04:26.869Z,4.33
2018-11-25T03:06:56.240Z,4.73
2018-11-25T03:09:39.317Z,3.67
2018-11-25T03:12:08.661Z,3.92
2018-11-25T03:14:38.035Z,3.60
2018-11-25T03:17:21.299Z,4.28
2018-11-25T03:19:50.696Z,4.07
2018-11-25T03:22:20.086Z,4.33
2018-11-25T03:25:04.082Z,4.27
2018-11-25T03:27:33.415Z,3.73
2018-11-25T03:30:02.556Z,4.50
2018-11-25T03:32:45.298Z,5.03
2018-11-25T03:35:14.848Z,4.12
2018-11-25T03:37:44.214Z,4.63
2018-11-25T03:40:27.059Z,4.63
2018-11-25T03:42:56.962Z,4.75
2018-11-25T03:45:26.300Z,4.67
2018-11-25T03:48:08.655Z,4.47
2018-11-25T03:50:37.976Z,4.72
2018-11-25T03:53:25.677Z,5.20
2018-11-25T03:56:02.982Z,4.60
2018-11-25T03:58:32.381Z,4.10
2018-11-25T04:01:19.378Z,3.60
2018-11-25T04:03:49.478Z,3.77
2018-11-25T04:06:19.402Z,3.33
2018-11-25T04:09:03.258Z,3.40
2018-11-25T04:11:32.702Z,3.95
2018-11-25T04:14:01.972Z,3.70
2018-11-25T04:16:45.703Z,3.50
2018-11-25T04:19:15.150Z,4.47
2018-11-25T04:21:44.526Z,4.03
2018-11-25T04:24:28.738Z,3.85
2018-11-25T04:26:58.122Z,4.47
2018-11-25T04:29:27.538Z,4.60
2018-11-25T04:32:10.104Z,3.50
2018-11-25T04:34:39.428Z,4.00
2018-11-25T04:37:09.756Z,3.95
2018-11-25T04:39:52.102Z,4.40
2018-11-25T04:42:21.488Z,4.75
2018-11-25T04:44:51.562Z,4.37
2018-11-25T04:47:32.819Z,3.80
2018-11-25T04:50:02.194Z,3.70
2018-11-25T04:52:31.567Z,4.50
2018-11-25T04:55:15.840Z,4.15
2018-11-25T04:57:47.359Z,4.17
2018-11-25T05:00:16.731Z,3.80
2018-11-25T05:02:58.138Z,3.97
2018-11-25T05:05:27.554Z,3.90
2018-11-25T05:07:57.255Z,4.23
2018-11-25T05:10:39.977Z,4.00
2018-11-25T05:13:09.395Z,4.07
2018-11-25T05:15:38.874Z,4.97
2018-11-25T05:18:21.274Z,4.07
2018-11-25T05:20:50.690Z,3.60
2018-11-25T05:23:20.093Z,4.07
2018-11-25T05:26:03.238Z,3.73
2018-11-25T05:28:32.585Z,4.30
2018-11-25T05:31:01.956Z,4.67
2018-11-25T05:33:45.319Z,3.90
2018-11-25T05:36:18.973Z,3.93
2018-11-25T05:41:58.083Z,4.17
2018-11-25T05:44:45.165Z,4.17
2018-11-25T05:47:14.536Z,3.62
2018-11-25T05:49:43.875Z,4.00
2018-11-25T05:52:29.031Z,4.40
2018-11-25T05:54:58.423Z,4.23
2018-11-25T05:57:27.758Z,3.80
2018-11-25T06:00:14.792Z,3.42
2018-11-25T06:02:44.286Z,4.40
2018-11-25T06:05:13.687Z,3.17
2018-11-25T06:07:51.866Z,4.42
2018-11-25T06:10:21.370Z,4.37
2018-11-25T06:12:50.733Z,4.90
2018-11-25T06:15:32.463Z,5.15
2018-11-25T06:18:01.863Z,4.57
2018-11-25T06:20:31.271Z,5.62
2018-11-25T06:23:14.922Z,4.77
2018-11-25T06:25:46.330Z,5.00
2018-11-25T06:28:15.694Z,4.43
2018-11-25T06:30:57.351Z,3.80
2018-11-25T06:33:26.726Z,3.80
2018-11-25T06:35:56.113Z,4.25
2018-11-25T06:38:39.256Z,3.50
2018-11-25T06:41:08.600Z,3.57
2018-11-25T06:43:38.033Z,3.87
2018-11-25T06:46:21.915Z,3.35
2018-11-25T06:48:55.043Z,3.85
2018-11-25T06:51:20.663Z,3.80
2018-11-25T06:54:03.926Z,3.60
2018-11-25T06:56:33.313Z,3.70
2018-11-25T06:59:03.260Z,3.87
2018-11-25T07:01:45.317Z,4.20
2018-11-25T07:04:14.698Z,4.03
2018-11-25T07:06:44.096Z,4.55
2018-11-25T07:09:27.252Z,3.80
2018-11-25T07:11:56.660Z,3.93
2018-11-25T07:14:26.073Z,4.65
2018-11-25T07:17:08.902Z,3.92
2018-11-25T07:19:38.271Z,4.40
2018-11-25T07:22:07.682Z,4.53
2018-11-25T07:24:50.656Z,4.20
2018-11-25T07:27:20.150Z,4.40
2018-11-25T07:29:50.034Z,4.10
2018-11-25T07:32:33.503Z,4.08
2018-11-25T07:35:02.857Z,4.33
2018-11-25T07:37:32.230Z,4.33
2018-11-25T07:40:16.516Z,4.10
2018-11-25T07:42:45.892Z,4.30
2018-11-25T07:45:17.692Z,3.90
2018-11-25T07:47:57.854Z,4.58
2018-11-25T07:50:27.272Z,4.28
2018-11-25T07:52:56.918Z,3.92
2018-11-25T07:55:39.398Z,4.30
2018-11-25T07:58:08.819Z,4.90
2018-11-25T08:00:38.410Z,3.90
2018-11-25T08:03:22.403Z,3.50
2018-11-25T08:05:51.886Z,5.08
2018-11-25T08:08:21.330Z,3.98
2018-11-25T08:11:07.422Z,4.08
2018-11-25T08:13:36.770Z,3.95
2018-11-25T08:16:06.748Z,3.67
2018-11-25T08:18:45.938Z,2.85
2018-11-25T08:21:15.297Z,3.33
2018-11-25T08:23:44.395Z,3.02
2018-11-25T08:26:27.561Z,3.10
2018-11-25T08:28:56.921Z,2.85
2018-11-25T08:31:26.866Z,2.72
2018-11-25T08:34:10.021Z,3.42
2018-11-25T08:36:39.370Z,3.27
2018-11-25T08:39:09.258Z,3.50
2018-11-25T08:41:51.761Z,3.40
2018-11-25T08:44:21.145Z,3.12
2018-11-25T08:46:51.055Z,3.40
2018-11-25T08:49:33.962Z,6.15
2018-11-25T08:52:03.314Z,14.47
2018-11-25T08:54:33.298Z,17.20
2018-11-25T08:57:15.877Z,17.30
2018-11-25T08:59:45.279Z,21.30
2018-11-25T09:02:14.624Z,20.13
2018-11-25T09:05:01.574Z,19.42
2018-11-25T09:07:30.990Z,21.50
2018-11-25T09:10:00.654Z,21.60
2018-11-25T09:12:40.507Z,21.43
2018-11-25T09:15:13.649Z,18.20
2018-11-25T09:17:43.145Z,16.13
2018-11-25T09:20:22.167Z,13.30
2018-11-25T09:22:52.558Z,13.07
2018-11-25T09:25:27.253Z,13.40
2018-11-25T09:28:04.743Z,13.63
2018-11-25T09:30:34.326Z,12.50
2018-11-25T09:33:03.834Z,12.20
2018-11-25T09:35:46.010Z,13.00
2018-11-25T09:38:15.415Z,13.03
2018-11-25T09:40:44.865Z,14.57
2018-11-25T09:43:28.195Z,14.23
2018-11-25T09:45:57.614Z,12.20
2018-11-25T09:48:27.075Z,14.07
2018-11-25T09:51:09.606Z,13.00
2018-11-25T09:53:39.099Z,12.37
2018-11-25T09:56:08.601Z,12.57
2018-11-25T09:58:51.179Z,10.87
2018-11-25T10:01:20.563Z,10.80
2018-11-25T10:03:50.082Z,13.43
2018-11-25T10:06:33.401Z,11.73
2018-11-25T10:09:02.924Z,13.97
2018-11-25T10:11:32.623Z,13.80
2018-11-25T10:14:14.766Z,10.83
2018-11-25T10:16:45.726Z,11.83
2018-11-25T10:19:15.136Z,13.15
2018-11-25T10:21:57.450Z,12.50
2018-11-25T10:24:26.539Z,11.87
2018-11-25T10:26:56.016Z,11.93
2018-11-25T10:29:39.499Z,11.30
2018-11-25T10:32:09.615Z,10.65
2018-11-25T10:34:38.976Z,9.40
2018-11-25T10:37:21.891Z,8.47
2018-11-25T10:39:51.298Z,9.03
2018-11-25T10:42:21.336Z,9.33
2018-11-25T10:45:04.471Z,11.30
2018-11-25T10:47:33.627Z,10.68
2018-11-25T10:50:03.662Z,10.53
2018-11-25T10:52:45.647Z,10.57
2018-11-25T10:55:16.315Z,10.17
2018-11-25T10:57:46.625Z,10.65
2018-11-25T11:00:34.902Z,10.45
2018-11-25T11:03:10.978Z,9.55
2018-11-25T11:09:33.782Z,11.28
2018-11-25T11:12:03.191Z,10.72
2018-11-25T11:14:45.375Z,10.10
2018-11-25T11:17:15.334Z,10.10
2018-11-25T11:19:44.886Z,9.43
2018-11-25T11:22:27.232Z,9.57
2018-11-25T11:24:56.666Z,8.33
2018-11-25T11:27:26.071Z,9.80
2018-11-25T11:30:09.015Z,8.77
2018-11-25T11:32:41.091Z,8.60
2018-11-25T11:35:10.864Z,8.95
2018-11-25T11:37:51.762Z,8.95
2018-11-25T11:40:21.172Z,8.88
2018-11-25T11:42:50.592Z,9.10
2018-11-25T11:45:33.478Z,8.98
2018-11-25T11:48:02.882Z,9.07
2018-11-25T11:50:33.006Z,9.58
2018-11-25T11:53:02.404Z,9.03
2018-11-25T11:55:32.289Z,7.90
2018-11-25T11:58:02.364Z,8.10
2018-11-25T12:00:32.205Z,8.28
2018-11-25T12:03:01.659Z,9.83
2018-11-25T12:05:31.030Z,9.00
2018-11-25T12:08:00.390Z,9.30
2018-11-25T12:10:29.830Z,7.97
2018-11-25T12:12:59.290Z,8.90
2018-11-25T12:15:31.387Z,8.70
2018-11-25T12:18:01.587Z,8.00
2018-11-25T12:20:31.813Z,7.90
2018-11-25T12:23:11.708Z,8.80
2018-11-25T12:25:41.108Z,8.67
2018-11-25T12:28:11.068Z,8.58
2018-11-25T12:30:42.813Z,9.13
2018-11-25T12:33:12.413Z,8.70
2018-11-25T12:35:42.442Z,8.65
2018-11-25T12:38:12.443Z,8.63
2018-11-25T12:40:43.040Z,9.58
2018-11-25T12:43:15.905Z,9.75
2018-11-25T12:45:45.880Z,10.33
2018-11-25T12:48:24.099Z,11.12
2018-11-25T12:50:53.590Z,11.22
2018-11-25T12:53:23.894Z,10.25
2018-11-25T12:55:55.030Z,11.22
2018-11-25T12:58:25.018Z,12.05
2018-11-25T13:00:55.781Z,10.07
2018-11-25T13:03:25.264Z,10.53
2018-11-25T13:05:54.654Z,10.15
2018-11-25T13:08:24.715Z,10.35
2018-11-25T13:10:54.250Z,9.80
2018-11-25T13:13:26.599Z,9.93
2018-11-25T13:15:57.566Z,9.60
2018-11-25T13:18:27.274Z,10.32
2018-11-25T13:21:04.442Z,9.43
2018-11-25T13:23:34.318Z,9.60
2018-11-25T13:26:04.955Z,8.83
2018-11-25T13:28:34.700Z,9.00
2018-11-25T13:31:04.468Z,8.88
2018-11-25T13:33:34.269Z,7.87
2018-11-25T13:36:04.979Z,6.83
2018-11-25T13:38:41.490Z,6.00
2018-11-25T13:41:11.175Z,6.63
2018-11-25T13:43:41.687Z,6.03
2018-11-25T13:46:11.756Z,6.27
2018-11-25T13:48:41.436Z,5.62
2018-11-25T13:51:12.270Z,6.30
2018-11-25T13:53:42.222Z,5.33
2018-11-25T13:56:11.794Z,6.70
2018-11-25T13:58:41.290Z,5.87
2018-11-25T14:01:11.199Z,6.13
2018-11-25T14:03:47.556Z,6.60
2018-11-25T14:06:18.277Z,6.50
2018-11-25T14:08:51.793Z,6.03
2018-11-25T14:11:24.071Z,5.83
2018-11-25T14:13:53.644Z,5.97
2018-11-25T14:16:23.406Z,5.93
2018-11-25T14:18:53.491Z,6.37
2018-11-25T14:21:22.943Z,7.10
2018-11-25T14:23:53.065Z,6.60
2018-11-25T14:26:26.122Z,7.67
2018-11-25T14:29:03.722Z,8.70
2018-11-25T14:31:33.159Z,8.67
2018-11-25T14:34:02.533Z,8.30
2018-11-25T14:36:33.846Z,8.83
2018-11-25T14:39:03.902Z,8.85
2018-11-25T14:41:33.051Z,8.13
2018-11-25T14:44:03.249Z,8.50
2018-11-25T14:46:32.638Z,9.27
2018-11-25T14:49:02.073Z,8.60
2018-11-25T14:51:31.508Z,8.50
2018-11-25T14:54:01.503Z,8.70
2018-11-25T14:56:30.923Z,9.05
2018-11-25T14:59:00.909Z,9.18
2018-11-25T15:01:30.798Z,8.38
2018-11-25T15:04:00.260Z,9.00
2018-11-25T15:06:29.888Z,8.17
2018-11-25T15:08:59.342Z,8.20
2018-11-25T15:11:28.522Z,7.97
2018-11-25T15:13:57.946Z,9.10
2018-11-25T15:16:27.451Z,8.58
2018-11-25T15:18:57.491Z,8.08
2018-11-25T15:21:27.003Z,8.13
2018-11-25T15:23:56.398Z,8.67
2018-11-25T15:26:25.910Z,8.33
2018-11-25T15:32:07.329Z,8.63
2018-11-25T15:34:38.441Z,8.58
2018-11-25T15:37:13.849Z,8.43
2018-11-25T15:39:43.237Z,8.03
2018-11-25T15:42:12.863Z,8.28
2018-11-25T15:44:47.461Z,7.70
2018-11-25T15:47:16.926Z,8.07
2018-11-25T15:49:46.935Z,7.08
2018-11-25T15:52:16.424Z,7.20
2018-11-25T15:54:47.402Z,6.03
2018-11-25T15:57:16.809Z,6.80
2018-11-25T15:59:46.198Z,7.78
2018-11-25T16:02:16.113Z,7.20
2018-11-25T16:04:46.529Z,7.60
2018-11-25T16:07:15.925Z,6.97
2018-11-25T16:09:45.913Z,8.10
2018-11-25T16:12:16.289Z,8.28
2018-11-25T16:14:46.749Z,7.97
2018-11-25T16:17:26.820Z,9.47
2018-11-25T16:19:56.272Z,7.67
2018-11-25T16:22:25.715Z,7.10
2018-11-25T16:24:55.998Z,7.28
2018-11-25T16:27:25.416Z,5.83
2018-11-25T16:29:55.064Z,6.72
2018-11-25T16:32:25.189Z,5.47
2018-11-25T16:34:55.144Z,7.40
2018-11-25T16:37:24.517Z,7.45
2018-11-25T16:39:54.126Z,6.03
2018-11-25T16:42:23.508Z,8.33
2018-11-25T16:44:53.059Z,7.12
2018-11-25T16:47:22.539Z,6.80
2018-11-25T16:49:52.151Z,7.05
2018-11-25T16:52:21.676Z,7.70
2018-11-25T16:54:51.151Z,7.53
2018-11-25T16:57:20.586Z,6.72
2018-11-25T16:59:49.979Z,5.78
2018-11-25T17:02:19.366Z,5.40
2018-11-25T17:04:48.887Z,5.00
2018-11-25T17:07:18.375Z,4.77
2018-11-25T17:09:47.896Z,5.00
2018-11-25T17:12:17.442Z,5.57
2018-11-25T17:14:47.001Z,7.10
2018-11-25T17:17:18.279Z,6.85
2018-11-25T17:19:50.917Z,7.87
2018-11-25T17:22:20.389Z,8.00
2018-11-25T17:24:50.308Z,7.15
2018-11-25T17:27:19.788Z,6.70
2018-11-25T17:29:49.186Z,7.20
2018-11-25T17:32:19.835Z,6.47
2018-11-25T17:35:07.001Z,6.50
2018-11-25T17:37:36.439Z,7.83
2018-11-25T17:40:07.219Z,7.60
2018-11-25T17:42:36.621Z,9.15
2018-11-25T17:45:10.428Z,8.68
2018-11-25T17:47:39.962Z,9.47
2018-11-25T17:50:25.415Z,9.03
2018-11-25T17:56:20.183Z,8.05
2018-11-25T17:58:54.128Z,8.43
2018-11-25T18:01:27.874Z,7.65
2018-11-25T18:04:10.419Z,7.67
2018-11-25T18:06:39.455Z,7.72
2018-11-25T18:09:11.446Z,7.72
2018-11-25T18:11:40.845Z,8.95
2018-11-25T18:14:13.419Z,9.27
2018-11-25T18:16:43.439Z,7.65
2018-11-25T18:19:21.181Z,8.13
2018-11-25T18:22:02.470Z,8.18
2018-11-25T18:24:31.967Z,7.80
2018-11-25T18:27:06.547Z,8.43
2018-11-25T18:29:36.527Z,7.92
2018-11-25T18:32:10.515Z,8.63
2018-11-25T18:34:40.019Z,8.47
2018-11-25T18:37:09.153Z,7.33
2018-11-25T18:39:38.649Z,7.80
2018-11-25T18:42:07.753Z,7.93
2018-11-25T18:44:37.747Z,7.22
2018-11-25T18:47:07.917Z,6.33
2018-11-25T18:49:37.365Z,6.85
2018-11-25T18:52:08.953Z,6.57
2018-11-25T18:54:46.665Z,6.65
2018-11-25T18:57:17.087Z,7.08
2018-11-25T18:59:50.604Z,7.37
2018-11-25T19:02:23.500Z,6.87
2018-11-25T19:04:57.948Z,6.65
2018-11-25T19:07:27.884Z,5.58
2018-11-25T19:09:57.347Z,6.60
2018-11-25T19:12:26.770Z,7.17
2018-11-25T19:14:56.828Z,6.80
2018-11-25T19:17:26.212Z,5.80
2018-11-25T19:19:55.658Z,6.28
2018-11-25T19:22:25.047Z,5.42
2018-11-25T19:24:54.467Z,6.55
2018-11-25T19:27:23.993Z,6.20
2018-11-25T19:29:53.501Z,6.67
2018-11-25T19:32:23.021Z,6.05
2018-11-25T19:34:52.425Z,6.65
2018-11-25T19:37:22.565Z,6.20
2018-11-25T19:39:51.983Z,6.10
2018-11-25T19:42:21.421Z,6.90
2018-11-25T19:44:50.830Z,6.23
2018-11-25T19:47:20.983Z,7.33
2018-11-25T19:49:50.373Z,8.07
2018-11-25T19:52:19.858Z,7.75
2018-11-25T19:54:49.918Z,8.25
2018-11-25T19:57:26.059Z,8.30
2018-11-25T20:00:00.850Z,7.60
2018-11-25T20:02:30.278Z,8.88
2018-11-25T20:05:00.215Z,8.53
2018-11-25T20:07:29.667Z,7.80
2018-11-25T20:09:59.197Z,8.13
2018-11-25T20:12:34.551Z,8.30
2018-11-25T20:15:04.910Z,8.90
2018-11-25T20:17:53.742Z,8.70
2018-11-25T20:20:15.508Z,9.15
2018-11-25T20:22:48.015Z,8.45
2018-11-25T20:25:18.445Z,7.85
2018-11-25T20:27:53.061Z,7.28
2018-11-25T20:30:27.905Z,6.65
2018-11-25T20:33:02.589Z,5.72
2018-11-25T20:35:32.260Z,6.53
2018-11-25T20:38:12.325Z,5.83
2018-11-25T20:40:43.462Z,7.25
2018-11-25T20:43:12.890Z,7.03
2018-11-25T20:45:50.296Z,7.40
2018-11-25T20:48:19.748Z,6.80
2018-11-25T20:50:50.350Z,7.25
2018-11-25T20:53:25.175Z,7.00
2018-11-25T20:56:02.764Z,7.25
2018-11-25T20:58:32.772Z,6.50
2018-11-25T21:01:02.231Z,7.05
2018-11-25T21:03:32.055Z,8.30
2018-11-25T21:06:01.616Z,8.03
2018-11-25T21:08:31.032Z,7.35
2018-11-25T21:11:04.760Z,6.17
2018-11-25T21:13:33.879Z,6.12
2018-11-25T21:16:03.467Z,8.38
2018-11-25T21:18:33.062Z,9.78
2018-11-25T21:21:02.697Z,8.48
2018-11-25T21:23:31.757Z,9.00
2018-11-25T21:26:02.331Z,11.80
2018-11-25T21:28:31.824Z,9.58
2018-11-25T21:31:01.435Z,9.05
2018-11-25T21:33:31.490Z,7.90
2018-11-25T21:36:00.939Z,7.12
2018-11-25T21:38:30.329Z,7.35
2018-11-25T21:40:59.748Z,7.35
2018-11-25T21:43:29.199Z,6.70
2018-11-25T21:45:59.314Z,6.33
2018-11-25T21:48:28.725Z,6.55
2018-11-25T21:50:58.123Z,7.03
2018-11-25T21:53:27.569Z,6.47
2018-11-25T21:55:56.929Z,6.53
2018-11-25T21:58:28.811Z,5.80
2018-11-25T22:00:56.806Z,6.47
2018-11-25T22:03:29.049Z,6.15
2018-11-25T22:05:58.493Z,7.50
2018-11-25T22:08:28.671Z,7.03
2018-11-25T22:10:58.088Z,6.12
2018-11-25T22:13:33.106Z,6.60
2018-11-25T22:16:02.594Z,6.37
2018-11-25T22:18:39.543Z,6.87
2018-11-25T22:21:08.969Z,6.55
2018-11-25T22:23:43.156Z,7.03
2018-11-25T22:26:18.236Z,6.80
2018-11-25T22:28:48.561Z,7.07
2018-11-25T22:31:18.531Z,6.35
2018-11-25T22:33:54.346Z,6.40
2018-11-25T22:36:23.794Z,7.05
2018-11-25T22:39:00.182Z,6.60
2018-11-25T22:41:29.848Z,7.15
2018-11-25T22:44:03.052Z,6.65
2018-11-25T22:46:32.491Z,6.67
2018-11-25T22:49:08.461Z,6.23
2018-11-25T22:51:37.849Z,5.87
2018-11-25T22:54:13.179Z,5.53
2018-11-25T22:56:43.107Z,6.25
2018-11-25T22:59:19.395Z,6.58
2018-11-25T23:01:48.855Z,6.17
2018-11-25T23:05:30.178Z,6.05
2018-11-25T23:07:59.659Z,5.63
2018-11-25T23:10:29.593Z,5.95
2018-11-25T23:12:59.049Z,6.42
2018-11-25T23:15:35.261Z,5.73
2018-11-25T23:18:04.760Z,5.92
2018-11-25T23:20:38.778Z,6.10
2018-11-25T23:23:08.193Z,6.17
2018-11-25T23:25:45.699Z,5.85
2018-11-25T23:28:15.053Z,5.70
2018-11-25T23:30:49.154Z,6.25
2018-11-25T23:33:18.587Z,5.47
2018-11-25T23:35:53.899Z,6.12
2018-11-25T23:38:23.293Z,6.67
2018-11-25T23:40:58.901Z,6.08
2018-11-25T23:46:39.227Z,5.20
2018-11-25T23:49:08.579Z,7.00
2018-11-25T23:51:37.997Z,6.67
2018-11-25T23:54:12.395Z,6.25
2018-11-25T23:56:41.871Z,6.22
2018-11-25T23:59:17.178Z,6.22
